createdAt,value
2018-10-09T00:01:05.188Z,1016.24
2018-10-09T00:02:13.819Z,1016.19
2018-10-09T00:03:22.705Z,1016.15
2018-10-09T00:04:31.341Z,1016.11
2018-10-09T00:05:39.971Z,1016.04
2018-10-09T00:06:48.606Z,1016.03
2018-10-09T00:07:57.239Z,1015.97
2018-10-09T00:09:05.863Z,1015.94
2018-10-09T00:10:14.503Z,1015.88
2018-10-09T00:11:23.128Z,1015.87
2018-10-09T00:12:31.771Z,1015.82
2018-10-09T00:13:40.655Z,1015.83
2018-10-09T00:14:49.286Z,1015.87
2018-10-09T00:15:57.919Z,1015.93
2018-10-09T00:17:06.554Z,1015.99
2018-10-09T00:18:15.444Z,1016.04
2018-10-09T00:19:24.076Z,1016.06
2018-10-09T00:20:32.706Z,1016.11
2018-10-09T00:21:41.607Z,1016.09
2018-10-09T00:22:50.240Z,1016.08
2018-10-09T00:23:58.865Z,1016.06
2018-10-09T00:25:07.497Z,1016.08
2018-10-09T00:26:16.383Z,1016.11
2018-10-09T00:27:25.017Z,1016.14
2018-10-09T00:28:33.647Z,1016.19
2018-10-09T00:29:42.277Z,1016.2
2018-10-09T00:30:51.166Z,1016.25
2018-10-09T00:31:59.800Z,1016.23
2018-10-09T00:33:08.431Z,1016.23
2018-10-09T00:34:17.060Z,1016.21
2018-10-09T00:35:25.686Z,1016.18
2018-10-09T00:36:34.320Z,1016.17
2018-10-09T00:37:42.948Z,1016.14
2018-10-09T00:38:51.848Z,1016.16
2018-10-09T00:40:00.476Z,1016.22
2018-10-09T00:41:09.114Z,1016.23
2018-10-09T00:42:17.742Z,1016.24
2018-10-09T00:43:26.374Z,1016.22
2018-10-09T00:44:35.006Z,1016.2
2018-10-09T00:45:43.630Z,1016.24
2018-10-09T00:46:52.526Z,1016.2
2018-10-09T00:48:01.159Z,1016.24
2018-10-09T00:49:10.063Z,1016.26
2018-10-09T00:50:18.698Z,1016.3
2018-10-09T00:51:27.327Z,1016.29
2018-10-09T00:52:35.955Z,1016.3
2018-10-09T00:53:44.594Z,1016.3
2018-10-09T00:54:53.745Z,1016.31
2018-10-09T00:56:02.378Z,1016.33
2018-10-09T00:57:11.004Z,1016.35
2018-10-09T00:58:19.637Z,1016.41
2018-10-09T00:59:28.266Z,1016.35
2018-10-09T01:00:36.896Z,1016.37
2018-10-09T01:01:45.526Z,1016.39
2018-10-09T01:02:54.154Z,1016.39
2018-10-09T01:04:02.791Z,1016.44
2018-10-09T01:05:11.678Z,1016.45
2018-10-09T01:06:20.311Z,1016.46
2018-10-09T01:07:28.939Z,1016.48
2018-10-09T01:08:37.577Z,1016.46
2018-10-09T01:09:46.208Z,1016.4
2018-10-09T01:10:54.840Z,1016.42
2018-10-09T01:12:03.465Z,1016.45
2018-10-09T01:13:12.359Z,1016.5
2018-10-09T01:14:20.990Z,1016.52
2018-10-09T01:15:29.623Z,1016.55
2018-10-09T01:16:38.521Z,1016.52
2018-10-09T01:17:47.410Z,1016.53
2018-10-09T01:18:56.302Z,1016.53
2018-10-09T01:20:04.928Z,1016.52
2018-10-09T01:21:13.554Z,1016.52
2018-10-09T01:22:22.451Z,1016.54
2018-10-09T01:23:31.082Z,1016.49
2018-10-09T01:24:39.711Z,1016.5
2018-10-09T01:25:48.599Z,1016.47
2018-10-09T01:26:57.234Z,1016.47
2018-10-09T01:28:05.864Z,1016.48
2018-10-09T01:29:14.495Z,1016.46
2018-10-09T01:30:23.425Z,1016.47
2018-10-09T01:31:32.316Z,1016.45
2018-10-09T01:32:40.944Z,1016.45
2018-10-09T01:33:49.576Z,1016.44
2018-10-09T01:34:58.200Z,1016.41
2018-10-09T01:36:06.834Z,1016.43
2018-10-09T01:37:15.461Z,1016.39
2018-10-09T01:38:24.095Z,1016.45
2018-10-09T01:39:32.726Z,1016.43
2018-10-09T01:40:41.353Z,1016.46
2018-10-09T01:41:50.249Z,1016.45
2018-10-09T01:42:58.877Z,1016.42
2018-10-09T01:44:07.514Z,1016.38
2018-10-09T01:45:16.140Z,1016.35
2018-10-09T01:46:24.770Z,1016.31
2018-10-09T01:47:33.402Z,1016.3
2018-10-09T01:48:42.037Z,1016.3
2018-10-09T01:49:50.663Z,1016.34
2018-10-09T01:50:59.301Z,1016.34
2018-10-09T01:52:07.935Z,1016.31
2018-10-09T01:53:16.567Z,1016.31
2018-10-09T01:54:25.195Z,1016.29
2018-10-09T01:55:33.823Z,1016.29
2018-10-09T01:56:42.449Z,1016.27
2018-10-09T01:57:51.078Z,1016.3
2018-10-09T01:59:00.245Z,1016.27
2018-10-09T02:00:08.877Z,1016.26
2018-10-09T02:01:17.764Z,1016.26
2018-10-09T02:02:26.388Z,1016.21
2018-10-09T02:03:35.027Z,1016.17
2018-10-09T02:04:43.657Z,1016.2
2018-10-09T02:05:52.287Z,1016.19
2018-10-09T02:07:00.910Z,1016.17
2018-10-09T02:08:09.807Z,1016.15
2018-10-09T02:09:18.433Z,1016.16
2018-10-09T02:10:27.063Z,1016.14
2018-10-09T02:11:35.690Z,1016.09
2018-10-09T02:12:44.323Z,1016.12
2018-10-09T02:13:52.954Z,1016.12
2018-10-09T02:15:01.598Z,1016.09
2018-10-09T02:16:10.232Z,1016.07
2018-10-09T02:17:18.860Z,1016.06
2018-10-09T02:18:27.499Z,1016.04
2018-10-09T02:19:36.120Z,1016
2018-10-09T02:20:44.760Z,1015.97
2018-10-09T02:21:53.639Z,1015.95
2018-10-09T02:23:02.278Z,1015.93
2018-10-09T02:24:10.899Z,1015.91
2018-10-09T02:25:19.536Z,1015.92
2018-10-09T02:26:28.156Z,1015.9
2018-10-09T02:27:37.048Z,1015.88
2018-10-09T02:28:45.673Z,1015.91
2018-10-09T02:29:54.316Z,1015.89
2018-10-09T02:31:03.484Z,1015.88
2018-10-09T02:32:12.374Z,1015.91
2018-10-09T02:33:21.312Z,1015.87
2018-10-09T02:34:30.556Z,1015.9
2018-10-09T02:35:39.194Z,1015.92
2018-10-09T02:36:47.819Z,1015.9
2018-10-09T02:37:56.455Z,1015.87
2018-10-09T02:39:05.337Z,1015.88
2018-10-09T02:40:13.986Z,1015.83
2018-10-09T02:41:22.610Z,1015.79
2018-10-09T02:42:31.244Z,1015.79
2018-10-09T02:43:40.135Z,1015.82
2018-10-09T02:44:48.769Z,1015.78
2018-10-09T02:45:57.399Z,1015.76
2018-10-09T02:47:06.039Z,1015.73
2018-10-09T02:48:14.661Z,1015.71
2018-10-09T02:49:23.297Z,1015.67
2018-10-09T02:50:32.458Z,1015.68
2018-10-09T02:51:41.087Z,1015.69
2018-10-09T02:52:49.984Z,1015.7
2018-10-09T02:53:58.606Z,1015.74
2018-10-09T02:55:07.247Z,1015.76
2018-10-09T02:56:15.876Z,1015.74
2018-10-09T02:57:24.514Z,1015.71
2018-10-09T02:58:33.663Z,1015.71
2018-10-09T02:59:42.296Z,1015.71
2018-10-09T03:00:50.926Z,1015.65
2018-10-09T03:01:59.566Z,1015.67
2018-10-09T03:03:08.197Z,1015.65
2018-10-09T03:04:17.092Z,1015.62
2018-10-09T03:05:26.013Z,1015.61
2018-10-09T03:06:34.652Z,1015.63
2018-10-09T03:07:43.277Z,1015.63
2018-10-09T03:08:52.172Z,1015.62
2018-10-09T03:10:00.806Z,1015.63
2018-10-09T03:11:09.436Z,1015.6
2018-10-09T03:12:18.074Z,1015.58
2018-10-09T03:13:26.698Z,1015.62
2018-10-09T03:14:35.332Z,1015.59
2018-10-09T03:15:43.951Z,1015.65
2018-10-09T03:16:52.851Z,1015.67
2018-10-09T03:18:01.746Z,1015.67
2018-10-09T03:19:10.647Z,1015.7
2018-10-09T03:20:19.273Z,1015.71
2018-10-09T03:21:27.911Z,1015.72
2018-10-09T03:22:36.538Z,1015.69
2018-10-09T03:23:45.169Z,1015.72
2018-10-09T03:24:53.789Z,1015.71
2018-10-09T03:26:02.423Z,1015.7
2018-10-09T03:27:11.071Z,1015.67
2018-10-09T03:28:19.689Z,1015.67
2018-10-09T03:29:28.321Z,1015.61
2018-10-09T03:30:36.948Z,1015.61
2018-10-09T03:31:46.119Z,1015.6
2018-10-09T03:32:54.748Z,1015.57
2018-10-09T03:34:03.386Z,1015.59
2018-10-09T03:35:12.015Z,1015.62
2018-10-09T03:36:20.648Z,1015.59
2018-10-09T03:37:29.278Z,1015.57
2018-10-09T03:38:37.914Z,1015.62
2018-10-09T03:39:46.540Z,1015.63
2018-10-09T03:40:55.173Z,1015.62
2018-10-09T03:42:03.800Z,1015.66
2018-10-09T03:43:12.441Z,1015.7
2018-10-09T03:44:21.068Z,1015.73
2018-10-09T03:45:29.693Z,1015.73
2018-10-09T03:46:38.320Z,1015.71
2018-10-09T03:47:46.954Z,1015.76
2018-10-09T03:48:55.862Z,1015.75
2018-10-09T03:50:04.748Z,1015.7
2018-10-09T03:51:13.384Z,1015.69
2018-10-09T03:52:22.003Z,1015.69
2018-10-09T03:53:30.911Z,1015.68
2018-10-09T03:54:39.540Z,1015.67
2018-10-09T03:55:48.171Z,1015.74
2018-10-09T03:56:56.798Z,1015.72
2018-10-09T03:58:05.955Z,1015.72
2018-10-09T03:59:14.583Z,1015.7
2018-10-09T04:00:23.474Z,1015.7
2018-10-09T04:01:32.095Z,1015.68
2018-10-09T04:02:40.726Z,1015.64
2018-10-09T04:03:49.362Z,1015.63
2018-10-09T04:04:57.995Z,1015.61
2018-10-09T04:06:06.890Z,1015.59
2018-10-09T04:07:15.515Z,1015.63
2018-10-09T04:08:24.150Z,1015.65
2018-10-09T04:09:33.108Z,1015.61
2018-10-09T04:10:41.678Z,1015.59
2018-10-09T04:11:50.567Z,1015.67
2018-10-09T04:12:59.199Z,1015.63
2018-10-09T04:14:07.828Z,1015.67
2018-10-09T04:15:16.468Z,1015.69
2018-10-09T04:16:25.356Z,1015.66
2018-10-09T04:17:33.988Z,1015.7
2018-10-09T04:18:42.881Z,1015.68
2018-10-09T04:19:51.514Z,1015.66
2018-10-09T04:21:00.148Z,1015.62
2018-10-09T04:22:08.780Z,1015.61
2018-10-09T04:23:17.405Z,1015.63
2018-10-09T04:24:26.036Z,1015.67
2018-10-09T04:25:34.671Z,1015.71
2018-10-09T04:26:43.301Z,1015.68
2018-10-09T04:27:51.931Z,1015.75
2018-10-09T04:29:00.555Z,1015.77
2018-10-09T04:30:09.193Z,1015.77
2018-10-09T04:31:17.823Z,1015.8
2018-10-09T04:32:26.453Z,1015.85
2018-10-09T04:33:35.079Z,1015.87
2018-10-09T04:34:43.711Z,1015.88
2018-10-09T04:35:52.339Z,1015.91
2018-10-09T04:37:00.965Z,1015.89
2018-10-09T04:38:09.597Z,1015.92
2018-10-09T04:39:18.222Z,1015.9
2018-10-09T04:40:26.851Z,1015.87
2018-10-09T04:41:35.482Z,1015.9
2018-10-09T04:42:44.118Z,1015.89
2018-10-09T04:43:52.784Z,1015.83
2018-10-09T04:45:01.372Z,1015.84
2018-10-09T04:46:10.000Z,1015.86
2018-10-09T04:47:18.898Z,1015.89
2018-10-09T04:48:27.524Z,1015.84
2018-10-09T04:49:36.150Z,1015.84
2018-10-09T04:50:44.783Z,1015.83
2018-10-09T04:51:53.416Z,1015.82
2018-10-09T04:53:02.136Z,1015.86
2018-10-09T04:54:11.101Z,1015.77
2018-10-09T04:55:19.730Z,1015.82
2018-10-09T04:56:28.623Z,1015.83
2018-10-09T04:57:37.521Z,1015.84
2018-10-09T04:58:46.413Z,1015.83
2018-10-09T04:59:55.040Z,1015.85
2018-10-09T05:01:03.931Z,1015.86
2018-10-09T05:02:12.564Z,1015.91
2018-10-09T05:03:21.196Z,1015.9
2018-10-09T05:04:29.824Z,1015.93
2018-10-09T05:05:38.445Z,1015.9
2018-10-09T05:06:47.340Z,1015.9
2018-10-09T05:07:55.972Z,1015.89
2018-10-09T05:09:04.600Z,1015.9
2018-10-09T05:10:13.231Z,1015.91
2018-10-09T05:11:22.396Z,1015.91
2018-10-09T05:12:31.029Z,1015.9
2018-10-09T05:13:39.921Z,1015.91
2018-10-09T05:14:48.552Z,1015.97
2018-10-09T05:15:57.182Z,1016.02
2018-10-09T05:17:05.813Z,1016.03
2018-10-09T05:18:14.439Z,1015.98
2018-10-09T05:19:23.065Z,1015.98
2018-10-09T05:20:31.968Z,1015.89
2018-10-09T05:21:40.597Z,1015.83
2018-10-09T05:22:49.227Z,1015.8
2018-10-09T05:23:57.852Z,1015.83
2018-10-09T05:25:06.486Z,1015.78
2018-10-09T05:26:15.372Z,1015.81
2018-10-09T05:27:24.001Z,1015.83
2018-10-09T05:28:32.628Z,1015.84
2018-10-09T05:29:41.532Z,1015.84
2018-10-09T05:30:50.159Z,1015.8
2018-10-09T05:31:58.801Z,1015.8
2018-10-09T05:33:07.415Z,1015.79
2018-10-09T05:34:16.048Z,1015.76
2018-10-09T05:35:24.680Z,1015.79
2018-10-09T05:36:33.581Z,1015.78
2018-10-09T05:37:42.519Z,1015.78
2018-10-09T05:38:51.104Z,1015.78
2018-10-09T05:39:59.734Z,1015.8
2018-10-09T05:41:08.373Z,1015.81
2018-10-09T05:42:17.007Z,1015.85
2018-10-09T05:43:25.886Z,1015.87
2018-10-09T05:44:34.816Z,1015.91
2018-10-09T05:45:43.409Z,1015.86
2018-10-09T05:46:52.318Z,1015.88
2018-10-09T05:48:01.212Z,1015.88
2018-10-09T05:49:10.109Z,1015.86
2018-10-09T05:50:18.736Z,1015.88
2018-10-09T05:51:27.641Z,1015.88
2018-10-09T05:52:36.299Z,1015.87
2018-10-09T05:53:45.275Z,1015.94
2018-10-09T05:54:54.182Z,1015.9
2018-10-09T05:56:03.070Z,1015.94
2018-10-09T05:57:11.706Z,1015.96
2018-10-09T05:58:20.337Z,1015.93
2018-10-09T05:59:28.965Z,1016.01
2018-10-09T06:00:37.591Z,1016.02
2018-10-09T06:01:46.221Z,1016.02
2018-10-09T06:02:54.851Z,1016.06
2018-10-09T06:04:03.480Z,1016
2018-10-09T06:05:12.105Z,1016
2018-10-09T06:06:21.002Z,1016
2018-10-09T06:07:29.629Z,1015.99
2018-10-09T06:08:38.263Z,1015.96
2018-10-09T06:09:46.883Z,1015.97
2018-10-09T06:10:55.522Z,1015.98
2018-10-09T06:12:04.701Z,1015.96
2018-10-09T06:13:13.337Z,1015.96
2018-10-09T06:14:21.966Z,1015.97
2018-10-09T06:15:30.591Z,1015.98
2018-10-09T06:16:40.025Z,1016.04
2018-10-09T06:17:48.649Z,1016.04
2018-10-09T06:18:57.285Z,1016.08
2018-10-09T06:20:06.166Z,1016.06
2018-10-09T06:21:14.801Z,1016.07
2018-10-09T06:22:23.430Z,1016.09
2018-10-09T06:23:32.069Z,1016.1
2018-10-09T06:24:40.685Z,1016.06
2018-10-09T06:25:49.318Z,1016.11
2018-10-09T06:26:57.947Z,1016.13
2018-10-09T06:28:06.639Z,1016.16
2018-10-09T06:29:15.213Z,1016.2
2018-10-09T06:30:23.840Z,1016.22
2018-10-09T06:31:32.468Z,1016.25
2018-10-09T06:32:41.103Z,1016.25
2018-10-09T06:33:49.771Z,1016.24
2018-10-09T06:34:58.362Z,1016.23
2018-10-09T06:36:06.997Z,1016.24
2018-10-09T06:37:15.929Z,1016.26
2018-10-09T06:38:24.517Z,1016.28
2018-10-09T06:39:33.142Z,1016.33
2018-10-09T06:40:42.119Z,1016.41
2018-10-09T06:41:51.113Z,1016.49
2018-10-09T06:42:59.752Z,1016.55
2018-10-09T06:44:08.379Z,1016.53
2018-10-09T06:45:17.316Z,1016.58
2018-10-09T06:46:26.194Z,1016.61
2018-10-09T06:47:34.853Z,1016.67
2018-10-09T06:48:43.963Z,1016.67
2018-10-09T06:49:52.595Z,1016.64
2018-10-09T06:51:01.226Z,1016.61
2018-10-09T06:52:09.845Z,1016.62
2018-10-09T06:53:18.505Z,1016.6
2018-10-09T06:54:27.560Z,1016.59
2018-10-09T06:55:36.548Z,1016.58
2018-10-09T06:56:45.164Z,1016.57
2018-10-09T06:57:53.802Z,1016.62
2018-10-09T06:59:02.426Z,1016.64
2018-10-09T07:00:11.117Z,1016.67
2018-10-09T07:01:19.965Z,1016.63
2018-10-09T07:02:28.865Z,1016.66
2018-10-09T07:03:37.501Z,1016.59
2018-10-09T07:04:46.147Z,1016.58
2018-10-09T07:05:54.781Z,1016.54
2018-10-09T07:07:03.416Z,1016.5
2018-10-09T07:08:12.054Z,1016.5
2018-10-09T07:09:20.755Z,1016.51
2018-10-09T07:10:29.337Z,1016.54
2018-10-09T07:11:37.985Z,1016.6
2018-10-09T07:12:46.616Z,1016.64
2018-10-09T07:13:55.251Z,1016.68
2018-10-09T07:15:03.909Z,1016.72
2018-10-09T07:16:12.535Z,1016.7
2018-10-09T07:17:21.173Z,1016.69
2018-10-09T07:18:29.825Z,1016.69
2018-10-09T07:19:38.466Z,1016.69
2018-10-09T07:20:47.096Z,1016.71
2018-10-09T07:21:56.004Z,1016.74
2018-10-09T07:23:04.645Z,1016.74
2018-10-09T07:24:13.281Z,1016.79
2018-10-09T07:25:21.924Z,1016.76
2018-10-09T07:26:30.826Z,1016.78
2018-10-09T07:27:39.469Z,1016.79
2018-10-09T07:28:48.103Z,1016.8
2018-10-09T07:29:56.750Z,1016.79
2018-10-09T07:31:05.394Z,1016.8
2018-10-09T07:32:14.038Z,1016.79
2018-10-09T07:33:22.673Z,1016.78
2018-10-09T07:34:31.312Z,1016.85
2018-10-09T07:35:39.952Z,1016.91
2018-10-09T07:36:48.863Z,1016.9
2018-10-09T07:37:57.496Z,1016.93
2018-10-09T07:39:06.402Z,1016.91
2018-10-09T07:40:15.302Z,1016.92
2018-10-09T07:41:23.946Z,1016.88
2018-10-09T07:42:32.581Z,1016.86
2018-10-09T07:43:41.224Z,1016.88
2018-10-09T07:44:49.859Z,1016.84
2018-10-09T07:45:58.502Z,1016.86
2018-10-09T07:47:07.146Z,1016.84
2018-10-09T07:48:15.787Z,1016.87
2018-10-09T07:49:24.428Z,1016.87
2018-10-09T07:50:33.067Z,1016.92
2018-10-09T07:51:41.709Z,1016.94
2018-10-09T07:52:50.503Z,1016.97
2018-10-09T07:53:58.989Z,1016.97
2018-10-09T07:55:07.898Z,1016.96
2018-10-09T07:56:16.553Z,1016.96
2018-10-09T07:57:25.182Z,1016.96
2018-10-09T07:58:33.836Z,1017
2018-10-09T07:59:42.456Z,1017.03
2018-10-09T08:00:51.099Z,1017.05
2018-10-09T08:01:59.739Z,1017.07
2018-10-09T08:03:08.385Z,1017.09
2018-10-09T08:04:17.040Z,1017.06
2018-10-09T08:05:26.206Z,1017.12
2018-10-09T08:06:34.848Z,1017.09
2018-10-09T08:07:43.487Z,1017.08
2018-10-09T08:08:52.394Z,1017.05
2018-10-09T08:10:01.300Z,1017.04
2018-10-09T08:11:09.951Z,1017.02
2018-10-09T08:12:18.845Z,1017.02
2018-10-09T08:13:27.496Z,1017.02
2018-10-09T08:14:36.130Z,1017.03
2018-10-09T08:15:44.772Z,1017.03
2018-10-09T08:16:53.409Z,1017.07
2018-10-09T08:18:02.058Z,1017.09
2018-10-09T08:19:10.697Z,1017.1
2018-10-09T08:20:19.338Z,1017.12
2018-10-09T08:21:27.973Z,1017.15
2018-10-09T08:22:36.717Z,1017.14
2018-10-09T08:23:45.267Z,1017.19
2018-10-09T08:24:54.167Z,1017.17
2018-10-09T08:26:02.812Z,1017.21
2018-10-09T08:27:11.463Z,1017.26
2018-10-09T08:28:20.118Z,1017.3
2018-10-09T08:29:28.757Z,1017.27
2018-10-09T08:30:37.412Z,1017.28
2018-10-09T08:31:46.032Z,1017.32
2018-10-09T08:32:54.688Z,1017.3
2018-10-09T08:34:03.594Z,1017.33
2018-10-09T08:35:12.235Z,1017.3
2018-10-09T08:36:20.868Z,1017.32
2018-10-09T08:37:29.512Z,1017.32
2018-10-09T08:38:38.161Z,1017.35
2018-10-09T08:39:47.065Z,1017.38
2018-10-09T08:40:55.707Z,1017.43
2018-10-09T08:42:04.612Z,1017.46
2018-10-09T08:43:13.262Z,1017.44
2018-10-09T08:44:21.901Z,1017.47
2018-10-09T08:45:30.551Z,1017.43
2018-10-09T08:46:39.454Z,1017.43
2018-10-09T08:47:48.100Z,1017.45
2018-10-09T08:48:56.740Z,1017.46
2018-10-09T08:50:05.389Z,1017.43
2018-10-09T08:51:14.026Z,1017.45
2018-10-09T08:52:22.670Z,1017.43
2018-10-09T08:53:31.312Z,1017.45
2018-10-09T08:54:39.964Z,1017.44
2018-10-09T08:55:48.604Z,1017.47
2018-10-09T08:56:57.240Z,1017.5
2018-10-09T08:58:05.877Z,1017.49
2018-10-09T08:59:14.517Z,1017.46
2018-10-09T09:00:23.429Z,1017.5
2018-10-09T09:01:32.066Z,1017.5
2018-10-09T09:02:40.713Z,1017.53
2018-10-09T09:03:49.345Z,1017.55
2018-10-09T09:04:57.994Z,1017.56
2018-10-09T09:06:06.646Z,1017.58
2018-10-09T09:07:15.287Z,1017.61
2018-10-09T09:08:23.966Z,1017.61
2018-10-09T09:09:32.626Z,1017.63
2018-10-09T09:10:41.243Z,1017.6
2018-10-09T09:11:50.049Z,1017.61
2018-10-09T09:12:59.353Z,1017.59
2018-10-09T09:14:08.880Z,1017.59
2018-10-09T09:15:18.353Z,1017.58
2018-10-09T09:16:27.654Z,1017.56
2018-10-09T09:17:37.729Z,1017.59
2018-10-09T09:18:46.772Z,1017.54
2018-10-09T09:19:55.410Z,1017.58
2018-10-09T09:21:04.474Z,1017.62
2018-10-09T09:22:12.966Z,1017.61
2018-10-09T09:23:21.640Z,1017.62
2018-10-09T09:24:30.281Z,1017.57
2018-10-09T09:25:39.202Z,1017.58
2018-10-09T09:26:47.905Z,1017.49
2018-10-09T09:27:56.490Z,1017.53
2018-10-09T09:29:05.400Z,1017.52
2018-10-09T09:30:14.301Z,1017.49
2018-10-09T09:31:23.220Z,1017.46
2018-10-09T09:32:31.868Z,1017.49
2018-10-09T09:33:40.528Z,1017.48
2018-10-09T09:34:49.173Z,1017.5
2018-10-09T09:35:57.818Z,1017.51
2018-10-09T09:37:06.452Z,1017.51
2018-10-09T09:38:15.368Z,1017.5
2018-10-09T09:39:24.009Z,1017.49
2018-10-09T09:40:32.666Z,1017.51
2018-10-09T09:41:41.293Z,1017.51
2018-10-09T09:42:49.941Z,1017.48
2018-10-09T09:43:58.586Z,1017.44
2018-10-09T09:45:07.234Z,1017.45
2018-10-09T09:46:15.963Z,1017.45
2018-10-09T09:47:24.788Z,1017.46
2018-10-09T09:48:33.503Z,1017.47
2018-10-09T09:49:42.384Z,1017.45
2018-10-09T09:50:51.023Z,1017.46
2018-10-09T09:51:59.662Z,1017.39
2018-10-09T09:53:08.319Z,1017.44
2018-10-09T09:54:17.280Z,1017.38
2018-10-09T09:55:25.932Z,1017.41
2018-10-09T09:56:34.570Z,1017.41
2018-10-09T09:57:43.249Z,1017.44
2018-10-09T09:58:52.061Z,1017.47
2018-10-09T10:00:00.512Z,1017.47
2018-10-09T10:01:09.151Z,1017.45
2018-10-09T10:02:17.799Z,1017.46
2018-10-09T10:03:26.441Z,1017.42
2018-10-09T10:04:35.093Z,1017.4
2018-10-09T10:05:43.738Z,1017.43
2018-10-09T10:06:52.383Z,1017.43
2018-10-09T10:08:01.444Z,1017.4
2018-10-09T10:09:10.400Z,1017.37
2018-10-09T10:10:19.550Z,1017.36
2018-10-09T10:11:28.818Z,1017.37
2018-10-09T10:12:37.496Z,1017.38
2018-10-09T10:13:46.590Z,1017.35
2018-10-09T10:14:55.627Z,1017.36
2018-10-09T10:16:04.271Z,1017.33
2018-10-09T10:17:12.919Z,1017.34
2018-10-09T10:18:21.557Z,1017.29
2018-10-09T10:19:30.200Z,1017.26
2018-10-09T10:20:39.107Z,1017.27
2018-10-09T10:21:47.754Z,1017.3
2018-10-09T10:22:56.398Z,1017.28
2018-10-09T10:24:05.044Z,1017.28
2018-10-09T10:25:13.950Z,1017.32
2018-10-09T10:26:22.601Z,1017.29
2018-10-09T10:27:31.241Z,1017.29
2018-10-09T10:28:39.884Z,1017.28
2018-10-09T10:29:48.797Z,1017.26
2018-10-09T10:30:57.700Z,1017.23
2018-10-09T10:32:06.353Z,1017.2
2018-10-09T10:33:15.258Z,1017.2
2018-10-09T10:34:24.168Z,1017.16
2018-10-09T10:35:32.828Z,1017.23
2018-10-09T10:36:41.515Z,1017.19
2018-10-09T10:37:50.115Z,1017.18
2018-10-09T10:38:58.743Z,1017.2
2018-10-09T10:40:07.383Z,1017.14
2018-10-09T10:41:16.032Z,1017.17
2018-10-09T10:42:24.674Z,1017.21
2018-10-09T10:43:33.586Z,1017.16
2018-10-09T10:44:42.228Z,1017.18
2018-10-09T10:45:50.875Z,1017.15
2018-10-09T10:46:59.521Z,1017.14
2018-10-09T10:48:08.431Z,1017.11
2018-10-09T10:49:17.456Z,1017.14
2018-10-09T10:50:26.286Z,1017.08
2018-10-09T10:51:34.935Z,1017.04
2018-10-09T10:52:43.891Z,1017.07
2018-10-09T10:53:52.540Z,1017.03
2018-10-09T10:55:01.310Z,1017.02
2018-10-09T10:56:10.805Z,1017.03
2018-10-09T10:57:19.450Z,1017.04
2018-10-09T10:58:28.100Z,1017.06
2018-10-09T10:59:36.742Z,1017.01
2018-10-09T11:00:45.389Z,1017.04
2018-10-09T11:01:54.126Z,1016.98
2018-10-09T11:03:03.092Z,1017
2018-10-09T11:04:11.745Z,1016.97
2018-10-09T11:05:20.395Z,1016.99
2018-10-09T11:06:29.047Z,1017.02
2018-10-09T11:07:37.690Z,1017.02
2018-10-09T11:08:46.358Z,1017.03
2018-10-09T11:09:54.977Z,1017
2018-10-09T11:11:03.878Z,1017.06
2018-10-09T11:12:12.533Z,1017.02
2018-10-09T11:13:21.168Z,1017.04
2018-10-09T11:14:29.824Z,1017.03
2018-10-09T11:15:38.465Z,1017.03
2018-10-09T11:16:47.119Z,1017.05
2018-10-09T11:17:55.755Z,1017.06
2018-10-09T11:19:04.403Z,1017.03
2018-10-09T11:20:13.046Z,1016.98
2018-10-09T11:21:21.793Z,1016.97
2018-10-09T11:22:30.344Z,1016.97
2018-10-09T11:23:38.984Z,1016.97
2018-10-09T11:24:47.885Z,1016.99
2018-10-09T11:25:56.790Z,1016.93
2018-10-09T11:27:05.443Z,1016.94
2018-10-09T11:28:14.085Z,1016.94
2018-10-09T11:29:22.738Z,1016.88
2018-10-09T11:30:31.374Z,1016.92
2018-10-09T11:31:40.055Z,1016.88
2018-10-09T11:32:48.694Z,1016.91
2018-10-09T11:33:57.343Z,1016.9
2018-10-09T11:35:05.975Z,1016.9
2018-10-09T11:36:14.908Z,1016.85
2018-10-09T11:37:23.553Z,1016.88
2018-10-09T11:38:32.458Z,1016.86
2018-10-09T11:39:41.133Z,1016.87
2018-10-09T11:40:49.779Z,1016.9
2018-10-09T11:41:58.429Z,1016.85
2018-10-09T11:43:07.345Z,1016.86
2018-10-09T11:44:15.990Z,1016.84
2018-10-09T11:45:24.629Z,1016.87
2018-10-09T11:46:33.275Z,1016.9
2018-10-09T11:47:41.915Z,1016.87
2018-10-09T11:48:50.570Z,1016.86
2018-10-09T11:49:59.478Z,1016.86
2018-10-09T11:51:08.130Z,1016.8
2018-10-09T11:52:16.768Z,1016.78
2018-10-09T11:53:25.423Z,1016.77
2018-10-09T11:54:34.057Z,1016.76
2018-10-09T11:55:42.974Z,1016.77
2018-10-09T11:56:51.619Z,1016.77
2018-10-09T11:58:00.539Z,1016.79
2018-10-09T11:59:09.268Z,1016.79
2018-10-09T12:00:17.824Z,1016.77
2018-10-09T12:01:26.482Z,1016.76
2018-10-09T12:02:35.114Z,1016.74
2018-10-09T12:03:44.220Z,1016.77
2018-10-09T12:04:52.864Z,1016.75
2018-10-09T12:06:01.517Z,1016.72
2018-10-09T12:07:10.161Z,1016.75
2018-10-09T12:08:18.834Z,1016.71
2018-10-09T12:09:27.455Z,1016.7
2018-10-09T12:10:36.102Z,1016.65
2018-10-09T12:11:44.743Z,1016.67
2018-10-09T12:12:53.394Z,1016.64
2018-10-09T12:14:02.041Z,1016.66
2018-10-09T12:15:10.954Z,1016.66
2018-10-09T12:16:19.595Z,1016.63
2018-10-09T12:17:28.247Z,1016.65
2018-10-09T12:18:36.893Z,1016.69
2018-10-09T12:19:45.534Z,1016.65
2018-10-09T12:20:54.180Z,1016.64
2018-10-09T12:22:02.821Z,1016.63
2018-10-09T12:23:11.466Z,1016.59
2018-10-09T12:24:20.112Z,1016.59
2018-10-09T12:25:28.764Z,1016.62
2018-10-09T12:26:37.409Z,1016.59
2018-10-09T12:27:46.053Z,1016.58
2018-10-09T12:28:54.965Z,1016.56
2018-10-09T12:30:03.616Z,1016.56
2018-10-09T12:31:12.258Z,1016.54
2018-10-09T12:32:21.169Z,1016.54
2018-10-09T12:33:29.813Z,1016.55
2018-10-09T12:34:38.732Z,1016.54
2018-10-09T12:35:47.644Z,1016.48
2018-10-09T12:36:56.288Z,1016.49
2018-10-09T12:38:04.932Z,1016.48
2018-10-09T12:39:13.577Z,1016.5
2018-10-09T12:40:22.224Z,1016.44
2018-10-09T12:41:30.871Z,1016.41
2018-10-09T12:42:39.516Z,1016.4
2018-10-09T12:43:48.223Z,1016.38
2018-10-09T12:44:57.190Z,1016.39
2018-10-09T12:46:05.837Z,1016.38
2018-10-09T12:47:14.746Z,1016.37
2018-10-09T12:48:23.649Z,1016.38
2018-10-09T12:49:32.299Z,1016.36
2018-10-09T12:50:40.942Z,1016.34
2018-10-09T12:51:49.590Z,1016.37
2018-10-09T12:52:58.281Z,1016.33
2018-10-09T12:54:06.882Z,1016.34
2018-10-09T12:55:15.528Z,1016.34
2018-10-09T12:56:24.183Z,1016.32
2018-10-09T12:57:32.829Z,1016.32
2018-10-09T12:58:41.501Z,1016.31
2018-10-09T12:59:50.504Z,1016.35
2018-10-09T13:00:59.148Z,1016.32
2018-10-09T13:02:07.792Z,1016.32
2018-10-09T13:03:16.712Z,1016.3
2018-10-09T13:04:25.623Z,1016.33
2018-10-09T13:05:34.271Z,1016.32
2018-10-09T13:06:42.910Z,1016.27
2018-10-09T13:07:51.562Z,1016.28
2018-10-09T13:09:00.207Z,1016.3
2018-10-09T13:10:08.855Z,1016.25
2018-10-09T13:11:17.496Z,1016.26
2018-10-09T13:12:26.157Z,1016.24
2018-10-09T13:13:34.798Z,1016.25
2018-10-09T13:14:43.447Z,1016.24
2018-10-09T13:15:52.362Z,1016.24
2018-10-09T13:17:01.024Z,1016.2
2018-10-09T13:18:09.998Z,1016.22
2018-10-09T13:19:18.649Z,1016.21
2018-10-09T13:20:27.293Z,1016.22
2018-10-09T13:21:36.269Z,1016.18
2018-10-09T13:22:45.283Z,1016.2
2018-10-09T13:23:54.232Z,1016.2
2018-10-09T13:25:02.881Z,1016.2
2018-10-09T13:26:11.530Z,1016.14
2018-10-09T13:27:20.712Z,1016.14
2018-10-09T13:28:29.350Z,1016.11
2018-10-09T13:29:38.003Z,1016.11
2018-10-09T13:30:46.684Z,1016.08
2018-10-09T13:31:55.291Z,1016.08
2018-10-09T13:33:03.936Z,1016.06
2018-10-09T13:34:12.691Z,1016.05
2018-10-09T13:35:21.226Z,1016.04
2018-10-09T13:36:29.868Z,1016.03
2018-10-09T13:37:38.773Z,1016.01
2018-10-09T13:38:47.414Z,1015.99
2018-10-09T13:39:56.063Z,1015.99
2018-10-09T13:41:04.753Z,1016
2018-10-09T13:42:13.695Z,1015.97
2018-10-09T13:43:22.339Z,1015.95
2018-10-09T13:44:30.994Z,1015.96
2018-10-09T13:45:39.900Z,1015.94
2018-10-09T13:46:48.549Z,1015.93
2018-10-09T13:47:57.191Z,1015.92
2018-10-09T13:49:05.839Z,1015.96
2018-10-09T13:50:14.532Z,1015.96
2018-10-09T13:51:23.135Z,1015.93
2018-10-09T13:52:31.784Z,1015.94
2018-10-09T13:53:40.425Z,1015.93
2018-10-09T13:54:49.071Z,1015.98